sensor_id;sensor_type;location;lat;lon;timestamp;P1;durP1;ratioP1;P2;durP2;ratioP2
75698;SDS011;64313;51.018;13.742;2024-02-04T00:01:18;2.17;;;0.90;;
75698;SDS011;64313;51.018;13.742;2024-02-04T00:03:43;2.42;;;0.90;;
75698;SDS011;64313;51.018;13.742;2024-02-04T00:06:09;2.80;;;1.00;;
75698;SDS011;64313;51.018;13.742;2024-02-04T00:08:34;2.30;;;0.93;;
75698;SDS011;64313;51.018;13.742;2024-02-04T00:10:59;2.25;;;1.02;;
75698;SDS011;64313;51.018;13.742;2024-02-04T00:13:25;2.58;;;1.02;;
75698;SDS011;64313;51.018;13.742;2024-02-04T00:15:50;2.50;;;1.00;;
75698;SDS011;64313;51.018;13.742;2024-02-04T00:18:19;2.65;;;1.00;;
75698;SDS011;64313;51.018;13.742;2024-02-04T00:20:44;2.85;;;1.00;;
75698;SDS011;64313;51.018;13.742;2024-02-04T00:23:09;3.28;;;1.10;;
75698;SDS011;64313;51.018;13.742;2024-02-04T00:25:35;2.80;;;0.93;;
75698;SDS011;64313;51.018;13.742;2024-02-04T00:28:00;2.72;;;0.85;;
75698;SDS011;64313;51.018;13.742;2024-02-04T00:30:25;1.80;;;0.80;;
75698;SDS011;64313;51.018;13.742;2024-02-04T00:32:51;2.33;;;0.90;;
75698;SDS011;64313;51.018;13.742;2024-02-04T00:35:17;2.72;;;1.00;;
75698;SDS011;64313;51.018;13.742;2024-02-04T00:37:42;2.42;;;0.90;;
75698;SDS011;64313;51.018;13.742;2024-02-04T00:40:07;3.53;;;0.98;;
75698;SDS011;64313;51.018;13.742;2024-02-04T00:42:33;2.38;;;1.00;;
75698;SDS011;64313;51.018;13.742;2024-02-04T00:44:59;2.53;;;1.05;;
75698;SDS011;64313;51.018;13.742;2024-02-04T00:47:24;2.55;;;0.95;;
75698;SDS011;64313;51.018;13.742;2024-02-04T00:49:50;2.50;;;0.90;;
75698;SDS011;64313;51.018;13.742;2024-02-04T00:52:16;2.40;;;0.80;;
75698;SDS011;64313;51.018;13.742;2024-02-04T00:54:41;2.30;;;0.90;;
75698;SDS011;64313;51.018;13.742;2024-02-04T00:57:06;3.20;;;1.00;;
75698;SDS011;64313;51.018;13.742;2024-02-04T00:59:32;1.85;;;0.80;;
75698;SDS011;64313;51.018;13.742;2024-02-04T01:01:57;3.20;;;1.00;;
75698;SDS011;64313;51.018;13.742;2024-02-04T01:04:23;2.30;;;0.90;;
75698;SDS011;64313;51.018;13.742;2024-02-04T01:06:49;3.10;;;0.90;;
75698;SDS011;64313;51.018;13.742;2024-02-04T01:09:14;2.08;;;0.80;;
75698;SDS011;64313;51.018;13.742;2024-02-04T01:11:39;2.13;;;0.90;;
75698;SDS011;64313;51.018;13.742;2024-02-04T01:14:05;2.45;;;0.90;;
75698;SDS011;64313;51.018;13.742;2024-02-04T01:16:30;2.22;;;0.70;;
75698;SDS011;64313;51.018;13.742;2024-02-04T01:18:55;1.95;;;0.80;;
75698;SDS011;64313;51.018;13.742;2024-02-04T01:21:20;2.45;;;0.80;;
75698;SDS011;64313;51.018;13.742;2024-02-04T01:23:46;2.38;;;0.75;;
75698;SDS011;64313;51.018;13.742;2024-02-04T01:26:11;3.13;;;0.70;;
75698;SDS011;64313;51.018;13.742;2024-02-04T01:28:36;2.42;;;0.82;;
75698;SDS011;64313;51.018;13.742;2024-02-04T01:31:02;3.35;;;0.85;;
75698;SDS011;64313;51.018;13.742;2024-02-04T01:33:27;2.00;;;0.80;;
75698;SDS011;64313;51.018;13.742;2024-02-04T01:35:53;3.60;;;0.70;;
75698;SDS011;64313;51.018;13.742;2024-02-04T01:38:18;1.65;;;0.70;;
75698;SDS011;64313;51.018;13.742;2024-02-04T01:40:45;2.40;;;0.82;;
75698;SDS011;64313;51.018;13.742;2024-02-04T01:43:11;1.98;;;0.60;;
75698;SDS011;64313;51.018;13.742;2024-02-04T01:45:36;2.53;;;0.70;;
75698;SDS011;64313;51.018;13.742;2024-02-04T01:48:02;1.55;;;0.73;;
75698;SDS011;64313;51.018;13.742;2024-02-04T01:50:28;1.80;;;0.70;;
75698;SDS011;64313;51.018;13.742;2024-02-04T01:52:53;2.67;;;0.70;;
75698;SDS011;64313;51.018;13.742;2024-02-04T01:55:19;2.28;;;0.70;;
75698;SDS011;64313;51.018;13.742;2024-02-04T01:57:44;2.17;;;0.70;;
75698;SDS011;64313;51.018;13.742;2024-02-04T02:00:12;2.45;;;0.85;;
75698;SDS011;64313;51.018;13.742;2024-02-04T02:02:38;2.40;;;0.70;;
75698;SDS011;64313;51.018;13.742;2024-02-04T02:05:05;2.67;;;0.85;;
75698;SDS011;64313;51.018;13.742;2024-02-04T02:07:30;1.95;;;0.73;;
75698;SDS011;64313;51.018;13.742;2024-02-04T02:09:57;1.83;;;0.70;;
75698;SDS011;64313;51.018;13.742;2024-02-04T02:12:23;1.55;;;0.60;;
75698;SDS011;64313;51.018;13.742;2024-02-04T02:14:58;2.92;;;0.80;;
75698;SDS011;64313;51.018;13.742;2024-02-04T02:17:33;1.85;;;0.70;;
75698;SDS011;64313;51.018;13.742;2024-02-04T02:20:55;1.70;;;0.52;;
75698;SDS011;64313;51.018;13.742;2024-02-04T02:25:39;2.10;;;0.93;;
75698;SDS011;64313;51.018;13.742;2024-02-04T02:28:06;2.10;;;0.73;;
75698;SDS011;64313;51.018;13.742;2024-02-04T02:30:31;3.40;;;1.00;;
75698;SDS011;64313;51.018;13.742;2024-02-04T02:32:57;4.32;;;1.10;;
75698;SDS011;64313;51.018;13.742;2024-02-04T02:35:22;2.53;;;1.00;;
75698;SDS011;64313;51.018;13.742;2024-02-04T02:40:51;3.88;;;1.58;;
75698;SDS011;64313;51.018;13.742;2024-02-04T02:43:22;3.72;;;1.52;;
75698;SDS011;64313;51.018;13.742;2024-02-04T02:45:48;4.10;;;1.50;;
75698;SDS011;64313;51.018;13.742;2024-02-04T02:48:13;3.50;;;1.50;;
75698;SDS011;64313;51.018;13.742;2024-02-04T02:50:39;4.53;;;1.95;;
75698;SDS011;64313;51.018;13.742;2024-02-04T02:53:04;4.05;;;1.70;;
75698;SDS011;64313;51.018;13.742;2024-02-04T02:55:30;4.70;;;1.80;;
75698;SDS011;64313;51.018;13.742;2024-02-04T02:57:55;5.22;;;1.70;;
75698;SDS011;64313;51.018;13.742;2024-02-04T03:00:21;5.75;;;1.90;;
75698;SDS011;64313;51.018;13.742;2024-02-04T03:02:46;3.85;;;1.48;;
75698;SDS011;64313;51.018;13.742;2024-02-04T03:05:12;5.07;;;1.80;;
75698;SDS011;64313;51.018;13.742;2024-02-04T03:07:38;4.90;;;1.90;;
75698;SDS011;64313;51.018;13.742;2024-02-04T03:10:03;4.95;;;1.98;;
75698;SDS011;64313;51.018;13.742;2024-02-04T03:12:29;5.10;;;1.85;;
75698;SDS011;64313;51.018;13.742;2024-02-04T03:14:54;5.53;;;1.73;;
75698;SDS011;64313;51.018;13.742;2024-02-04T03:17:19;7.20;;;1.73;;
75698;SDS011;64313;51.018;13.742;2024-02-04T03:19:47;4.35;;;1.88;;
75698;SDS011;64313;51.018;13.742;2024-02-04T03:22:13;4.78;;;1.90;;
75698;SDS011;64313;51.018;13.742;2024-02-04T03:24:38;3.97;;;1.70;;
75698;SDS011;64313;51.018;13.742;2024-02-04T03:27:04;4.45;;;1.65;;
75698;SDS011;64313;51.018;13.742;2024-02-04T03:29:29;4.22;;;1.73;;
75698;SDS011;64313;51.018;13.742;2024-02-04T03:31:57;4.45;;;1.52;;
75698;SDS011;64313;51.018;13.742;2024-02-04T03:34:23;5.03;;;1.30;;
75698;SDS011;64313;51.018;13.742;2024-02-04T03:36:48;4.70;;;1.40;;
75698;SDS011;64313;51.018;13.742;2024-02-04T03:39:13;3.25;;;1.02;;
75698;SDS011;64313;51.018;13.742;2024-02-04T03:41:39;2.63;;;1.00;;
75698;SDS011;64313;51.018;13.742;2024-02-04T03:44:04;2.88;;;1.08;;
75698;SDS011;64313;51.018;13.742;2024-02-04T03:46:30;2.42;;;1.00;;
75698;SDS011;64313;51.018;13.742;2024-02-04T03:48:56;1.73;;;0.80;;
75698;SDS011;64313;51.018;13.742;2024-02-04T03:51:21;1.88;;;0.70;;
75698;SDS011;64313;51.018;13.742;2024-02-04T03:53:47;2.70;;;0.70;;
75698;SDS011;64313;51.018;13.742;2024-02-04T03:56:14;2.75;;;0.80;;
75698;SDS011;64313;51.018;13.742;2024-02-04T03:58:39;1.92;;;0.80;;
75698;SDS011;64313;51.018;13.742;2024-02-04T04:01:05;1.45;;;0.60;;
75698;SDS011;64313;51.018;13.742;2024-02-04T04:03:30;2.50;;;0.90;;
75698;SDS011;64313;51.018;13.742;2024-02-04T04:05:55;2.88;;;1.05;;
75698;SDS011;64313;51.018;13.742;2024-02-04T04:08:21;2.92;;;1.00;;
75698;SDS011;64313;51.018;13.742;2024-02-04T04:10:46;3.70;;;1.33;;
75698;SDS011;64313;51.018;13.742;2024-02-04T04:13:11;4.47;;;1.50;;
75698;SDS011;64313;51.018;13.742;2024-02-04T04:15:38;3.70;;;1.40;;
75698;SDS011;64313;51.018;13.742;2024-02-04T04:18:03;3.45;;;1.40;;
75698;SDS011;64313;51.018;13.742;2024-02-04T04:20:29;4.25;;;1.65;;
75698;SDS011;64313;51.018;13.742;2024-02-04T04:22:54;4.65;;;1.77;;
75698;SDS011;64313;51.018;13.742;2024-02-04T04:25:19;5.32;;;1.67;;
75698;SDS011;64313;51.018;13.742;2024-02-04T04:27:45;4.05;;;1.50;;
75698;SDS011;64313;51.018;13.742;2024-02-04T04:30:10;5.57;;;1.83;;
75698;SDS011;64313;51.018;13.742;2024-02-04T04:32:36;3.50;;;1.33;;
75698;SDS011;64313;51.018;13.742;2024-02-04T04:35:01;5.65;;;1.67;;
75698;SDS011;64313;51.018;13.742;2024-02-04T04:37:26;4.57;;;1.60;;
75698;SDS011;64313;51.018;13.742;2024-02-04T04:39:52;3.88;;;1.50;;
75698;SDS011;64313;51.018;13.742;2024-02-04T04:42:17;3.80;;;1.60;;
75698;SDS011;64313;51.018;13.742;2024-02-04T04:44:42;4.60;;;1.45;;
75698;SDS011;64313;51.018;13.742;2024-02-04T04:47:08;3.40;;;1.20;;
75698;SDS011;64313;51.018;13.742;2024-02-04T04:49:33;4.68;;;1.40;;
75698;SDS011;64313;51.018;13.742;2024-02-04T04:51:58;3.72;;;1.20;;
75698;SDS011;64313;51.018;13.742;2024-02-04T04:54:24;4.03;;;1.38;;
75698;SDS011;64313;51.018;13.742;2024-02-04T04:56:49;3.30;;;1.17;;
75698;SDS011;64313;51.018;13.742;2024-02-04T04:59:15;4.07;;;1.30;;
75698;SDS011;64313;51.018;13.742;2024-02-04T05:01:47;3.78;;;1.70;;
75698;SDS011;64313;51.018;13.742;2024-02-04T05:04:13;2.95;;;1.02;;
75698;SDS011;64313;51.018;13.742;2024-02-04T05:06:39;4.35;;;1.33;;
75698;SDS011;64313;51.018;13.742;2024-02-04T05:09:04;4.10;;;1.30;;
75698;SDS011;64313;51.018;13.742;2024-02-04T05:11:30;3.20;;;1.00;;
75698;SDS011;64313;51.018;13.742;2024-02-04T05:13:55;3.05;;;1.02;;
75698;SDS011;64313;51.018;13.742;2024-02-04T05:16:20;3.53;;;1.30;;
75698;SDS011;64313;51.018;13.742;2024-02-04T05:18:45;3.75;;;1.20;;
75698;SDS011;64313;51.018;13.742;2024-02-04T05:21:11;4.13;;;1.20;;
75698;SDS011;64313;51.018;13.742;2024-02-04T05:23:36;4.00;;;1.10;;
75698;SDS011;64313;51.018;13.742;2024-02-04T05:26:05;3.30;;;1.05;;
75698;SDS011;64313;51.018;13.742;2024-02-04T05:28:30;3.90;;;1.20;;
75698;SDS011;64313;51.018;13.742;2024-02-04T05:30:56;3.35;;;1.20;;
75698;SDS011;64313;51.018;13.742;2024-02-04T05:33:21;3.70;;;1.33;;
75698;SDS011;64313;51.018;13.742;2024-02-04T05:35:47;4.18;;;1.25;;
75698;SDS011;64313;51.018;13.742;2024-02-04T05:38:12;2.92;;;1.10;;
75698;SDS011;64313;51.018;13.742;2024-02-04T05:40:37;4.05;;;1.30;;
75698;SDS011;64313;51.018;13.742;2024-02-04T05:43:04;3.05;;;1.20;;
75698;SDS011;64313;51.018;13.742;2024-02-04T05:45:42;4.63;;;1.50;;
75698;SDS011;64313;51.018;13.742;2024-02-04T05:48:07;3.55;;;1.30;;
75698;SDS011;64313;51.018;13.742;2024-02-04T05:50:35;4.85;;;1.20;;
75698;SDS011;64313;51.018;13.742;2024-02-04T05:53:01;3.58;;;1.27;;
75698;SDS011;64313;51.018;13.742;2024-02-04T05:55:27;3.33;;;1.20;;
75698;SDS011;64313;51.018;13.742;2024-02-04T05:57:53;3.17;;;1.27;;
75698;SDS011;64313;51.018;13.742;2024-02-04T06:00:18;4.00;;;1.23;;
75698;SDS011;64313;51.018;13.742;2024-02-04T06:02:44;4.00;;;1.23;;
75698;SDS011;64313;51.018;13.742;2024-02-04T06:05:10;3.65;;;1.30;;
75698;SDS011;64313;51.018;13.742;2024-02-04T06:07:39;3.88;;;1.30;;
75698;SDS011;64313;51.018;13.742;2024-02-04T06:10:08;3.55;;;1.40;;
75698;SDS011;64313;51.018;13.742;2024-02-04T06:12:34;3.35;;;1.13;;
75698;SDS011;64313;51.018;13.742;2024-02-04T06:14:59;3.67;;;1.33;;
75698;SDS011;64313;51.018;13.742;2024-02-04T06:17:24;3.67;;;1.23;;
75698;SDS011;64313;51.018;13.742;2024-02-04T06:19:50;3.75;;;1.40;;
75698;SDS011;64313;51.018;13.742;2024-02-04T06:22:15;3.78;;;1.20;;
75698;SDS011;64313;51.018;13.742;2024-02-04T06:24:40;3.38;;;1.20;;
75698;SDS011;64313;51.018;13.742;2024-02-04T06:27:06;3.75;;;1.42;;
75698;SDS011;64313;51.018;13.742;2024-02-04T06:29:32;3.42;;;1.15;;
75698;SDS011;64313;51.018;13.742;2024-02-04T06:31:58;3.72;;;1.20;;
75698;SDS011;64313;51.018;13.742;2024-02-04T06:34:23;3.33;;;1.23;;
75698;SDS011;64313;51.018;13.742;2024-02-04T06:36:49;4.55;;;1.20;;
75698;SDS011;64313;51.018;13.742;2024-02-04T06:39:14;2.75;;;0.90;;
75698;SDS011;64313;51.018;13.742;2024-02-04T06:41:40;4.20;;;1.20;;
75698;SDS011;64313;51.018;13.742;2024-02-04T06:44:05;3.90;;;1.38;;
75698;SDS011;64313;51.018;13.742;2024-02-04T06:46:31;4.20;;;1.40;;
75698;SDS011;64313;51.018;13.742;2024-02-04T06:48:56;3.10;;;1.23;;
75698;SDS011;64313;51.018;13.742;2024-02-04T06:51:22;3.58;;;1.20;;
75698;SDS011;64313;51.018;13.742;2024-02-04T06:53:47;3.53;;;1.02;;
75698;SDS011;64313;51.018;13.742;2024-02-04T06:56:13;3.08;;;1.20;;
75698;SDS011;64313;51.018;13.742;2024-02-04T06:58:38;2.42;;;1.00;;
75698;SDS011;64313;51.018;13.742;2024-02-04T07:01:04;2.90;;;1.00;;
75698;SDS011;64313;51.018;13.742;2024-02-04T07:03:29;2.35;;;1.00;;
75698;SDS011;64313;51.018;13.742;2024-02-04T07:05:55;2.60;;;1.10;;
75698;SDS011;64313;51.018;13.742;2024-02-04T07:08:21;2.42;;;0.98;;
75698;SDS011;64313;51.018;13.742;2024-02-04T07:10:46;2.42;;;1.00;;
75698;SDS011;64313;51.018;13.742;2024-02-04T07:13:12;2.92;;;1.05;;
75698;SDS011;64313;51.018;13.742;2024-02-04T07:15:37;2.85;;;0.93;;
75698;SDS011;64313;51.018;13.742;2024-02-04T07:18:03;2.42;;;0.90;;
75698;SDS011;64313;51.018;13.742;2024-02-04T07:20:29;2.70;;;1.00;;
75698;SDS011;64313;51.018;13.742;2024-02-04T07:22:54;1.70;;;0.55;;
75698;SDS011;64313;51.018;13.742;2024-02-04T07:25:19;2.38;;;0.80;;
75698;SDS011;64313;51.018;13.742;2024-02-04T07:27:45;3.05;;;0.80;;
75698;SDS011;64313;51.018;13.742;2024-02-04T07:30:10;1.70;;;0.70;;
75698;SDS011;64313;51.018;13.742;2024-02-04T07:32:36;2.58;;;0.77;;
75698;SDS011;64313;51.018;13.742;2024-02-04T07:35:02;1.88;;;0.80;;
75698;SDS011;64313;51.018;13.742;2024-02-04T07:37:27;1.80;;;0.60;;
75698;SDS011;64313;51.018;13.742;2024-02-04T07:39:53;1.85;;;0.68;;
75698;SDS011;64313;51.018;13.742;2024-02-04T07:42:18;1.52;;;0.60;;
75698;SDS011;64313;51.018;13.742;2024-02-04T07:44:43;1.20;;;0.60;;
75698;SDS011;64313;51.018;13.742;2024-02-04T07:47:09;1.30;;;0.50;;
75698;SDS011;64313;51.018;13.742;2024-02-04T07:49:34;3.78;;;0.60;;
75698;SDS011;64313;51.018;13.742;2024-02-04T07:51:59;1.20;;;0.50;;
75698;SDS011;64313;51.018;13.742;2024-02-04T07:54:25;1.02;;;0.40;;
75698;SDS011;64313;51.018;13.742;2024-02-04T07:56:50;1.35;;;0.60;;
75698;SDS011;64313;51.018;13.742;2024-02-04T07:59:15;1.17;;;0.40;;
75698;SDS011;64313;51.018;13.742;2024-02-04T08:01:41;1.17;;;0.50;;
75698;SDS011;64313;51.018;13.742;2024-02-04T08:04:06;0.73;;;0.40;;
75698;SDS011;64313;51.018;13.742;2024-02-04T08:06:33;1.63;;;0.50;;
75698;SDS011;64313;51.018;13.742;2024-02-04T08:08:59;0.90;;;0.40;;
75698;SDS011;64313;51.018;13.742;2024-02-04T08:11:25;1.00;;;0.40;;
75698;SDS011;64313;51.018;13.742;2024-02-04T08:13:50;1.13;;;0.47;;
75698;SDS011;64313;51.018;13.742;2024-02-04T08:16:15;1.65;;;0.57;;
75698;SDS011;64313;51.018;13.742;2024-02-04T08:18:41;1.35;;;0.57;;
75698;SDS011;64313;51.018;13.742;2024-02-04T08:21:06;0.68;;;0.40;;
75698;SDS011;64313;51.018;13.742;2024-02-04T08:23:32;0.95;;;0.40;;
75698;SDS011;64313;51.018;13.742;2024-02-04T08:25:57;0.85;;;0.50;;
75698;SDS011;64313;51.018;13.742;2024-02-04T08:28:23;1.17;;;0.47;;
75698;SDS011;64313;51.018;13.742;2024-02-04T08:30:49;1.10;;;0.50;;
75698;SDS011;64313;51.018;13.742;2024-02-04T08:33:14;1.58;;;0.40;;
75698;SDS011;64313;51.018;13.742;2024-02-04T08:35:40;0.93;;;0.40;;
75698;SDS011;64313;51.018;13.742;2024-02-04T08:38:05;1.65;;;0.40;;
75698;SDS011;64313;51.018;13.742;2024-02-04T08:40:30;2.55;;;0.68;;
75698;SDS011;64313;51.018;13.742;2024-02-04T08:42:56;0.82;;;0.50;;
75698;SDS011;64313;51.018;13.742;2024-02-04T08:45:21;0.98;;;0.30;;
75698;SDS011;64313;51.018;13.742;2024-02-04T08:47:47;0.82;;;0.35;;
75698;SDS011;64313;51.018;13.742;2024-02-04T08:50:15;0.30;;;0.20;;
75698;SDS011;64313;51.018;13.742;2024-02-04T08:52:41;1.27;;;0.50;;
75698;SDS011;64313;51.018;13.742;2024-02-04T08:55:06;1.15;;;0.50;;
75698;SDS011;64313;51.018;13.742;2024-02-04T08:57:34;0.57;;;0.32;;
75698;SDS011;64313;51.018;13.742;2024-02-04T08:59:59;1.35;;;0.50;;
75698;SDS011;64313;51.018;13.742;2024-02-04T09:02:25;0.43;;;0.30;;
75698;SDS011;64313;51.018;13.742;2024-02-04T09:04:50;0.50;;;0.30;;
75698;SDS011;64313;51.018;13.742;2024-02-04T09:07:15;0.38;;;0.20;;
75698;SDS011;64313;51.018;13.742;2024-02-04T09:09:41;0.85;;;0.40;;
75698;SDS011;64313;51.018;13.742;2024-02-04T09:12:07;0.77;;;0.35;;
75698;SDS011;64313;51.018;13.742;2024-02-04T09:14:33;1.50;;;0.40;;
75698;SDS011;64313;51.018;13.742;2024-02-04T09:16:58;1.00;;;0.50;;
75698;SDS011;64313;51.018;13.742;2024-02-04T09:19:23;2.20;;;0.90;;
75698;SDS011;64313;51.018;13.742;2024-02-04T09:21:49;3.83;;;1.20;;
75698;SDS011;64313;51.018;13.742;2024-02-04T09:24:14;6.65;;;2.20;;
75698;SDS011;64313;51.018;13.742;2024-02-04T09:26:40;5.53;;;1.95;;
75698;SDS011;64313;51.018;13.742;2024-02-04T09:29:05;3.28;;;0.90;;
75698;SDS011;64313;51.018;13.742;2024-02-04T09:31:30;1.75;;;0.60;;
75698;SDS011;64313;51.018;13.742;2024-02-04T09:33:56;1.15;;;0.47;;
75698;SDS011;64313;51.018;13.742;2024-02-04T09:36:21;1.13;;;0.40;;
75698;SDS011;64313;51.018;13.742;2024-02-04T09:38:47;2.35;;;0.60;;
75698;SDS011;64313;51.018;13.742;2024-02-04T09:41:13;1.50;;;0.50;;
75698;SDS011;64313;51.018;13.742;2024-02-04T09:43:38;1.75;;;0.60;;
75698;SDS011;64313;51.018;13.742;2024-02-04T09:46:04;1.90;;;0.73;;
75698;SDS011;64313;51.018;13.742;2024-02-04T09:48:29;1.13;;;0.50;;
75698;SDS011;64313;51.018;13.742;2024-02-04T09:50:57;1.15;;;0.50;;
75698;SDS011;64313;51.018;13.742;2024-02-04T09:53:25;1.58;;;0.60;;
75698;SDS011;64313;51.018;13.742;2024-02-04T09:55:58;2.70;;;0.50;;
75698;SDS011;64313;51.018;13.742;2024-02-04T09:58:24;1.17;;;0.40;;
75698;SDS011;64313;51.018;13.742;2024-02-04T10:00:59;1.52;;;0.52;;
75698;SDS011;64313;51.018;13.742;2024-02-04T10:03:25;1.20;;;0.60;;
75698;SDS011;64313;51.018;13.742;2024-02-04T10:05:50;1.50;;;0.63;;
75698;SDS011;64313;51.018;13.742;2024-02-04T10:08:15;1.40;;;0.60;;
75698;SDS011;64313;51.018;13.742;2024-02-04T10:10:41;3.78;;;0.77;;
75698;SDS011;64313;51.018;13.742;2024-02-04T10:13:10;1.83;;;0.73;;
75698;SDS011;64313;51.018;13.742;2024-02-04T10:15:35;3.08;;;1.20;;
75698;SDS011;64313;51.018;13.742;2024-02-04T10:18:05;2.70;;;0.80;;
75698;SDS011;64313;51.018;13.742;2024-02-04T10:20:31;2.53;;;0.82;;
75698;SDS011;64313;51.018;13.742;2024-02-04T10:22:56;2.35;;;0.80;;
75698;SDS011;64313;51.018;13.742;2024-02-04T10:25:24;2.70;;;0.85;;
75698;SDS011;64313;51.018;13.742;2024-02-04T10:27:50;2.38;;;0.75;;
75698;SDS011;64313;51.018;13.742;2024-02-04T10:30:15;2.85;;;0.80;;
75698;SDS011;64313;51.018;13.742;2024-02-04T10:32:44;2.78;;;0.90;;
75698;SDS011;64313;51.018;13.742;2024-02-04T10:35:10;2.38;;;0.90;;
75698;SDS011;64313;51.018;13.742;2024-02-04T10:37:36;2.47;;;0.90;;
75698;SDS011;64313;51.018;13.742;2024-02-04T10:40:02;3.38;;;0.88;;
75698;SDS011;64313;51.018;13.742;2024-02-04T10:42:27;2.60;;;0.90;;
75698;SDS011;64313;51.018;13.742;2024-02-04T10:44:54;2.35;;;0.85;;
75698;SDS011;64313;51.018;13.742;2024-02-04T10:47:24;3.28;;;1.10;;
75698;SDS011;64313;51.018;13.742;2024-02-04T10:49:54;4.35;;;1.50;;
75698;SDS011;64313;51.018;13.742;2024-02-04T10:52:23;4.80;;;2.00;;
75698;SDS011;64313;51.018;13.742;2024-02-04T10:54:52;4.00;;;1.40;;
75698;SDS011;64313;51.018;13.742;2024-02-04T10:57:21;3.35;;;1.35;;
75698;SDS011;64313;51.018;13.742;2024-02-04T10:59:47;6.60;;;2.88;;
75698;SDS011;64313;51.018;13.742;2024-02-04T11:02:13;4.25;;;1.65;;
75698;SDS011;64313;51.018;13.742;2024-02-04T11:04:41;3.20;;;1.10;;
75698;SDS011;64313;51.018;13.742;2024-02-04T11:07:07;2.50;;;0.70;;
75698;SDS011;64313;51.018;13.742;2024-02-04T11:09:34;1.52;;;0.50;;
75698;SDS011;64313;51.018;13.742;2024-02-04T11:12:01;0.85;;;0.43;;
75698;SDS011;64313;51.018;13.742;2024-02-04T11:14:28;1.08;;;0.50;;
75698;SDS011;64313;51.018;13.742;2024-02-04T11:17:08;1.58;;;0.60;;
75698;SDS011;64313;51.018;13.742;2024-02-04T11:25:52;1.23;;;0.60;;
75698;SDS011;64313;51.018;13.742;2024-02-04T11:28:20;2.67;;;0.80;;
75698;SDS011;64313;51.018;13.742;2024-02-04T11:30:46;2.28;;;0.70;;
75698;SDS011;64313;51.018;13.742;2024-02-04T11:33:17;1.40;;;0.65;;
75698;SDS011;64313;51.018;13.742;2024-02-04T11:35:43;2.13;;;0.77;;
75698;SDS011;64313;51.018;13.742;2024-02-04T11:38:09;3.13;;;0.90;;
75698;SDS011;64313;51.018;13.742;2024-02-04T11:40:36;2.05;;;0.80;;
75698;SDS011;64313;51.018;13.742;2024-02-04T11:43:06;2.55;;;0.88;;
75698;SDS011;64313;51.018;13.742;2024-02-04T11:45:32;3.30;;;1.00;;
75698;SDS011;64313;51.018;13.742;2024-02-04T11:48:06;2.85;;;0.93;;
75698;SDS011;64313;51.018;13.742;2024-02-04T11:50:32;2.83;;;0.90;;
75698;SDS011;64313;51.018;13.742;2024-02-04T11:53:16;1.83;;;0.70;;
75698;SDS011;64313;51.018;13.742;2024-02-04T11:55:41;3.00;;;1.08;;
75698;SDS011;64313;51.018;13.742;2024-02-04T11:58:08;3.38;;;1.10;;
75698;SDS011;64313;51.018;13.742;2024-02-04T12:00:37;3.17;;;1.05;;
75698;SDS011;64313;51.018;13.742;2024-02-04T12:03:03;2.25;;;0.90;;
75698;SDS011;64313;51.018;13.742;2024-02-04T12:05:36;3.15;;;1.10;;
75698;SDS011;64313;51.018;13.742;2024-02-04T12:08:06;5.85;;;1.10;;
75698;SDS011;64313;51.018;13.742;2024-02-04T12:10:33;2.83;;;0.98;;
75698;SDS011;64313;51.018;13.742;2024-02-04T12:13:01;4.05;;;1.13;;
75698;SDS011;64313;51.018;13.742;2024-02-04T12:15:28;3.25;;;0.95;;
75698;SDS011;64313;51.018;13.742;2024-02-04T12:17:55;3.65;;;1.20;;
75698;SDS011;64313;51.018;13.742;2024-02-04T12:20:20;2.72;;;1.08;;
75698;SDS011;64313;51.018;13.742;2024-02-04T12:22:46;3.33;;;1.10;;
75698;SDS011;64313;51.018;13.742;2024-02-04T12:25:11;2.50;;;1.00;;
75698;SDS011;64313;51.018;13.742;2024-02-04T12:27:37;3.28;;;1.20;;
75698;SDS011;64313;51.018;13.742;2024-02-04T12:30:02;2.35;;;0.93;;
75698;SDS011;64313;51.018;13.742;2024-02-04T12:32:30;4.30;;;1.30;;
75698;SDS011;64313;51.018;13.742;2024-02-04T12:34:55;3.05;;;1.13;;
75698;SDS011;64313;51.018;13.742;2024-02-04T12:37:21;2.88;;;0.98;;
75698;SDS011;64313;51.018;13.742;2024-02-04T12:39:47;3.60;;;1.10;;
75698;SDS011;64313;51.018;13.742;2024-02-04T12:42:15;3.63;;;1.10;;
75698;SDS011;64313;51.018;13.742;2024-02-04T12:44:46;3.67;;;1.10;;
75698;SDS011;64313;51.018;13.742;2024-02-04T12:47:13;2.80;;;0.98;;
75698;SDS011;64313;51.018;13.742;2024-02-04T12:49:39;4.65;;;1.17;;
75698;SDS011;64313;51.018;13.742;2024-02-04T12:52:05;4.20;;;1.10;;
75698;SDS011;64313;51.018;13.742;2024-02-04T12:54:40;3.20;;;1.10;;
75698;SDS011;64313;51.018;13.742;2024-02-04T12:57:06;2.70;;;1.05;;
75698;SDS011;64313;51.018;13.742;2024-02-04T12:59:32;1.95;;;0.80;;
75698;SDS011;64313;51.018;13.742;2024-02-04T13:02:02;2.80;;;1.00;;
75698;SDS011;64313;51.018;13.742;2024-02-04T13:04:38;2.72;;;1.10;;
75698;SDS011;64313;51.018;13.742;2024-02-04T13:07:08;3.35;;;1.20;;
75698;SDS011;64313;51.018;13.742;2024-02-04T13:09:34;3.03;;;1.13;;
75698;SDS011;64313;51.018;13.742;2024-02-04T13:12:04;2.28;;;0.90;;
75698;SDS011;64313;51.018;13.742;2024-02-04T13:14:33;2.00;;;0.90;;
75698;SDS011;64313;51.018;13.742;2024-02-04T13:16:59;2.08;;;0.85;;
75698;SDS011;64313;51.018;13.742;2024-02-04T13:19:24;2.70;;;1.05;;
75698;SDS011;64313;51.018;13.742;2024-02-04T13:21:50;2.28;;;0.93;;
75698;SDS011;64313;51.018;13.742;2024-02-04T13:24:15;5.13;;;1.10;;
75698;SDS011;64313;51.018;13.742;2024-02-04T13:26:40;1.88;;;0.90;;
75698;SDS011;64313;51.018;13.742;2024-02-04T13:29:06;2.58;;;0.93;;
75698;SDS011;64313;51.018;13.742;2024-02-04T13:31:31;1.92;;;0.88;;
75698;SDS011;64313;51.018;13.742;2024-02-04T13:33:57;3.78;;;1.00;;
75698;SDS011;64313;51.018;13.742;2024-02-04T13:36:23;3.35;;;0.95;;
75698;SDS011;64313;51.018;13.742;2024-02-04T13:38:48;2.35;;;0.95;;
75698;SDS011;64313;51.018;13.742;2024-02-04T13:41:13;3.05;;;0.93;;
75698;SDS011;64313;51.018;13.742;2024-02-04T13:43:39;2.70;;;1.10;;
75698;SDS011;64313;51.018;13.742;2024-02-04T13:46:05;2.38;;;1.00;;
75698;SDS011;64313;51.018;13.742;2024-02-04T13:48:30;2.75;;;1.13;;
75698;SDS011;64313;51.018;13.742;2024-02-04T13:50:55;2.28;;;1.05;;
75698;SDS011;64313;51.018;13.742;2024-02-04T13:53:21;3.65;;;1.00;;
75698;SDS011;64313;51.018;13.742;2024-02-04T13:55:46;2.92;;;0.90;;
75698;SDS011;64313;51.018;13.742;2024-02-04T13:58:13;2.78;;;1.00;;
75698;SDS011;64313;51.018;13.742;2024-02-04T14:00:39;3.30;;;1.00;;
75698;SDS011;64313;51.018;13.742;2024-02-04T14:03:04;3.17;;;1.02;;
75698;SDS011;64313;51.018;13.742;2024-02-04T14:05:31;2.50;;;0.80;;
75698;SDS011;64313;51.018;13.742;2024-02-04T14:07:57;2.85;;;1.00;;
75698;SDS011;64313;51.018;13.742;2024-02-04T14:10:22;2.40;;;1.00;;
75698;SDS011;64313;51.018;13.742;2024-02-04T14:12:47;3.00;;;1.02;;
75698;SDS011;64313;51.018;13.742;2024-02-04T14:15:13;3.13;;;1.10;;
75698;SDS011;64313;51.018;13.742;2024-02-04T14:17:38;5.50;;;1.20;;
75698;SDS011;64313;51.018;13.742;2024-02-04T14:20:05;3.13;;;1.13;;
75698;SDS011;64313;51.018;13.742;2024-02-04T14:22:31;3.22;;;1.20;;
75698;SDS011;64313;51.018;13.742;2024-02-04T14:24:57;3.05;;;1.20;;
75698;SDS011;64313;51.018;13.742;2024-02-04T14:27:23;4.32;;;1.30;;
75698;SDS011;64313;51.018;13.742;2024-02-04T14:29:48;3.30;;;1.10;;
75698;SDS011;64313;51.018;13.742;2024-02-04T14:32:14;2.53;;;0.90;;
75698;SDS011;64313;51.018;13.742;2024-02-04T14:34:39;3.53;;;1.10;;
75698;SDS011;64313;51.018;13.742;2024-02-04T14:37:04;5.30;;;1.30;;
75698;SDS011;64313;51.018;13.742;2024-02-04T14:39:30;4.32;;;1.30;;